sensor_id;sensor_type;location;lat;lon;timestamp;pressure;altitude;pressure_sealevel;temperature;humidity
38716;BME280;24833;49.324;8.694;2023-03-14T00:02:14;98079.16;;;9.69;98.65
38716;BME280;24833;49.324;8.694;2023-03-14T00:04:41;98092.47;;;9.69;98.77
38716;BME280;24833;49.324;8.694;2023-03-14T00:07:11;98099.91;;;9.67;98.18
38716;BME280;24833;49.324;8.694;2023-03-14T00:09:39;98092.94;;;9.66;98.22
38716;BME280;24833;49.324;8.694;2023-03-14T00:12:06;98084.97;;;9.66;98.34
38716;BME280;24833;49.324;8.694;2023-03-14T00:14:34;98095.03;;;9.64;98.03
38716;BME280;24833;49.324;8.694;2023-03-14T00:17:01;98090.28;;;9.66;98.53
38716;BME280;24833;49.324;8.694;2023-03-14T00:19:28;98097.72;;;9.64;98.94
38716;BME280;24833;49.324;8.694;2023-03-14T00:21:54;98098.72;;;9.63;98.34
38716;BME280;24833;49.324;8.694;2023-03-14T00:24:21;98099.56;;;9.63;98.61
38716;BME280;24833;49.324;8.694;2023-03-14T00:26:48;98096.66;;;9.65;98.17
38716;BME280;24833;49.324;8.694;2023-03-14T00:29:15;98089.72;;;9.64;98.61
38716;BME280;24833;49.324;8.694;2023-03-14T00:31:44;98079.88;;;9.64;98.33
38716;BME280;24833;49.324;8.694;2023-03-14T00:34:11;98091.34;;;9.65;98.46
38716;BME280;24833;49.324;8.694;2023-03-14T00:36:38;98079.88;;;9.64;98.22
38716;BME280;24833;49.324;8.694;2023-03-14T00:39:05;98075.34;;;9.65;98.10
38716;BME280;24833;49.324;8.694;2023-03-14T00:41:32;98073.25;;;9.67;99.10
38716;BME280;24833;49.324;8.694;2023-03-14T00:43:59;98065.25;;;9.67;98.90
38716;BME280;24833;49.324;8.694;2023-03-14T00:46:26;98069.53;;;9.68;98.96
38716;BME280;24833;49.324;8.694;2023-03-14T00:48:53;98055.97;;;9.69;98.99
38716;BME280;24833;49.324;8.694;2023-03-14T00:51:22;98055.75;;;9.71;99.46
38716;BME280;24833;49.324;8.694;2023-03-14T00:53:49;98061.31;;;9.69;98.82
38716;BME280;24833;49.324;8.694;2023-03-14T00:56:17;98060.03;;;9.72;99.22
38716;BME280;24833;49.324;8.694;2023-03-14T00:58:44;98064.91;;;9.75;98.90
38716;BME280;24833;49.324;8.694;2023-03-14T01:01:16;98071.50;;;9.72;98.37
38716;BME280;24833;49.324;8.694;2023-03-14T01:03:45;98073.38;;;9.72;98.97
38716;BME280;24833;49.324;8.694;2023-03-14T01:06:24;98068.59;;;9.74;98.49
38716;BME280;24833;49.324;8.694;2023-03-14T01:08:53;98071.03;;;9.75;99.42
38716;BME280;24833;49.324;8.694;2023-03-14T01:11:29;98087.84;;;9.76;98.98
38716;BME280;24833;49.324;8.694;2023-03-14T01:13:58;98078.81;;;9.77;99.62
38716;BME280;24833;49.324;8.694;2023-03-14T01:16:30;98063.63;;;9.77;99.35
38716;BME280;24833;49.324;8.694;2023-03-14T01:19:01;98065.00;;;9.80;99.15
38716;BME280;24833;49.324;8.694;2023-03-14T01:21:31;98064.56;;;9.83;99.89
38716;BME280;24833;49.324;8.694;2023-03-14T01:24:01;98071.50;;;9.84;100.00
38716;BME280;24833;49.324;8.694;2023-03-14T01:26:32;98056.09;;;9.86;99.56
38716;BME280;24833;49.324;8.694;2023-03-14T01:29:00;98047.03;;;9.87;99.95
38716;BME280;24833;49.324;8.694;2023-03-14T01:31:28;98045.78;;;9.90;100.00
38716;BME280;24833;49.324;8.694;2023-03-14T01:33:55;98043.69;;;9.92;100.00
38716;BME280;24833;49.324;8.694;2023-03-14T01:36:22;98031.16;;;9.92;100.00
38716;BME280;24833;49.324;8.694;2023-03-14T01:38:50;98015.72;;;9.94;100.00
38716;BME280;24833;49.324;8.694;2023-03-14T01:41:22;98023.72;;;9.94;99.98
38716;BME280;24833;49.324;8.694;2023-03-14T01:43:51;98026.41;;;9.94;100.00
38716;BME280;24833;49.324;8.694;2023-03-14T01:46:42;98022.69;;;9.95;99.79
38716;BME280;24833;49.324;8.694;2023-03-14T01:49:22;98012.00;;;9.95;99.79
38716;BME280;24833;49.324;8.694;2023-03-14T01:52:23;98011.22;;;9.95;100.00
38716;BME280;24833;49.324;8.694;2023-03-14T01:54:59;98005.88;;;9.95;100.00
38716;BME280;24833;49.324;8.694;2023-03-14T01:57:35;97987.47;;;9.93;100.00
38716;BME280;24833;49.324;8.694;2023-03-14T02:00:14;97977.59;;;9.94;100.00
38716;BME280;24833;49.324;8.694;2023-03-14T02:02:53;97972.50;;;9.92;100.00
38716;BME280;24833;49.324;8.694;2023-03-14T02:05:30;97978.91;;;9.91;100.00
38716;BME280;24833;49.324;8.694;2023-03-14T02:08:11;97972.50;;;9.92;100.00
38716;BME280;24833;49.324;8.694;2023-03-14T02:10:47;97951.44;;;9.91;100.00
38716;BME280;24833;49.324;8.694;2023-03-14T02:13:20;97968.22;;;9.91;100.00
38716;BME280;24833;49.324;8.694;2023-03-14T02:16:08;97962.09;;;9.91;100.00
38716;BME280;24833;49.324;8.694;2023-03-14T02:18:54;97967.88;;;9.88;100.00
38716;BME280;24833;49.324;8.694;2023-03-14T02:22:10;97979.34;;;9.88;100.00
38716;BME280;24833;49.324;8.694;2023-03-14T02:27:40;97971.28;;;9.83;100.00
38716;BME280;24833;49.324;8.694;2023-03-14T02:30:21;97968.81;;;9.81;100.00
38716;BME280;24833;49.324;8.694;2023-03-14T02:32:54;97960.00;;;9.81;100.00
38716;BME280;24833;49.324;8.694;2023-03-14T02:35:28;97949.34;;;9.81;100.00
38716;BME280;24833;49.324;8.694;2023-03-14T02:38:13;97946.13;;;9.79;100.00
38716;BME280;24833;49.324;8.694;2023-03-14T02:40:44;97924.00;;;9.78;100.00
38716;BME280;24833;49.324;8.694;2023-03-14T02:43:12;97947.72;;;9.80;100.00
38716;BME280;24833;49.324;8.694;2023-03-14T02:45:46;97959.44;;;9.79;100.00
38716;BME280;24833;49.324;8.694;2023-03-14T02:48:34;97947.63;;;9.75;100.00
38716;BME280;24833;49.324;8.694;2023-03-14T02:51:04;97956.78;;;9.79;100.00
38716;BME280;24833;49.324;8.694;2023-03-14T02:53:34;97947.41;;;9.76;100.00
38716;BME280;24833;49.324;8.694;2023-03-14T02:56:07;97946.56;;;9.76;100.00
38716;BME280;24833;49.324;8.694;2023-03-14T02:58:36;97935.09;;;9.75;100.00
38716;BME280;24833;49.324;8.694;2023-03-14T03:01:22;97935.34;;;9.74;100.00
38716;BME280;24833;49.324;8.694;2023-03-14T03:03:49;97940.44;;;9.75;100.00
38716;BME280;24833;49.324;8.694;2023-03-14T03:06:18;97932.69;;;9.74;100.00
38716;BME280;24833;49.324;8.694;2023-03-14T03:08:45;97944.63;;;9.71;100.00
38716;BME280;24833;49.324;8.694;2023-03-14T03:11:12;97946.50;;;9.71;100.00
38716;BME280;24833;49.324;8.694;2023-03-14T03:13:39;97933.38;;;9.69;100.00
38716;BME280;24833;49.324;8.694;2023-03-14T03:16:07;97926.44;;;9.68;100.00
38716;BME280;24833;49.324;8.694;2023-03-14T03:18:35;97917.06;;;9.66;100.00
38716;BME280;24833;49.324;8.694;2023-03-14T03:21:04;97920.78;;;9.65;100.00
38716;BME280;24833;49.324;8.694;2023-03-14T03:23:31;97905.84;;;9.64;100.00
38716;BME280;24833;49.324;8.694;2023-03-14T03:25:58;97903.19;;;9.64;100.00
38716;BME280;24833;49.324;8.694;2023-03-14T03:28:25;97906.84;;;9.63;100.00
38716;BME280;24833;49.324;8.694;2023-03-14T03:30:53;97901.78;;;9.61;100.00
38716;BME280;24833;49.324;8.694;2023-03-14T03:33:20;97879.88;;;9.59;100.00
38716;BME280;24833;49.324;8.694;2023-03-14T03:35:50;97884.41;;;9.59;100.00
38716;BME280;24833;49.324;8.694;2023-03-14T03:38:28;97874.81;;;9.58;100.00
38716;BME280;24833;49.324;8.694;2023-03-14T03:40:57;97870.53;;;9.57;100.00
38716;BME280;24833;49.324;8.694;2023-03-14T03:43:26;97862.53;;;9.57;100.00
38716;BME280;24833;49.324;8.694;2023-03-14T03:45:54;97870.75;;;9.55;100.00
38716;BME280;24833;49.324;8.694;2023-03-14T03:48:23;97868.31;;;9.53;100.00
38716;BME280;24833;49.324;8.694;2023-03-14T03:50:49;97866.69;;;9.52;100.00
38716;BME280;24833;49.324;8.694;2023-03-14T03:53:20;97857.09;;;9.51;100.00
38716;BME280;24833;49.324;8.694;2023-03-14T03:56:01;97860.81;;;9.50;100.00
38716;BME280;24833;49.324;8.694;2023-03-14T03:58:29;97854.69;;;9.50;100.00
38716;BME280;24833;49.324;8.694;2023-03-14T04:00:56;97866.59;;;9.47;100.00
38716;BME280;24833;49.324;8.694;2023-03-14T04:03:23;97875.41;;;9.48;100.00
38716;BME280;24833;49.324;8.694;2023-03-14T04:06:04;97858.03;;;9.45;100.00
38716;BME280;24833;49.324;8.694;2023-03-14T04:08:33;97870.31;;;9.46;100.00
38716;BME280;24833;49.324;8.694;2023-03-14T04:11:02;97871.34;;;9.45;100.00
38716;BME280;24833;49.324;8.694;2023-03-14T04:13:47;97860.13;;;9.43;100.00
38716;BME280;24833;49.324;8.694;2023-03-14T04:16:18;97863.81;;;9.42;100.00
38716;BME280;24833;49.324;8.694;2023-03-14T04:18:46;97872.88;;;9.41;100.00
38716;BME280;24833;49.324;8.694;2023-03-14T04:21:15;97853.16;;;9.42;99.98
38716;BME280;24833;49.324;8.694;2023-03-14T04:23:46;97848.88;;;9.41;100.00
38716;BME280;24833;49.324;8.694;2023-03-14T04:26:14;97840.91;;;9.41;100.00
38716;BME280;24833;49.324;8.694;2023-03-14T04:28:41;97855.25;;;9.40;100.00
38716;BME280;24833;49.324;8.694;2023-03-14T04:31:17;97855.25;;;9.40;99.91
38716;BME280;24833;49.324;8.694;2023-03-14T04:33:46;97848.88;;;9.41;100.00
38716;BME280;24833;49.324;8.694;2023-03-14T04:36:16;97847.28;;;9.40;100.00
38716;BME280;24833;49.324;8.694;2023-03-14T04:38:43;97841.13;;;9.40;100.00
38716;BME280;24833;49.324;8.694;2023-03-14T04:41:11;97845.66;;;9.39;100.00
38716;BME280;24833;49.324;8.694;2023-03-14T04:43:39;97828.88;;;9.39;100.00
38716;BME280;24833;49.324;8.694;2023-03-14T04:46:08;97825.41;;;9.38;99.93
38716;BME280;24833;49.324;8.694;2023-03-14T04:48:35;97814.75;;;9.38;99.85
38716;BME280;24833;49.324;8.694;2023-03-14T04:51:02;97820.88;;;9.39;100.00
38716;BME280;24833;49.324;8.694;2023-03-14T04:53:32;97806.19;;;9.36;99.92
38716;BME280;24833;49.324;8.694;2023-03-14T04:56:01;97809.88;;;9.35;99.78
38716;BME280;24833;49.324;8.694;2023-03-14T04:58:35;97794.69;;;9.36;99.80
38716;BME280;24833;49.324;8.694;2023-03-14T05:01:04;97810.91;;;9.34;99.48
38716;BME280;24833;49.324;8.694;2023-03-14T05:03:49;97813.03;;;9.32;99.40
38716;BME280;24833;49.324;8.694;2023-03-14T05:06:28;97807.13;;;9.30;99.44
38716;BME280;24833;49.324;8.694;2023-03-14T05:09:14;97800.75;;;9.31;99.57
38716;BME280;24833;49.324;8.694;2023-03-14T05:12:00;97795.66;;;9.30;99.30
38716;BME280;24833;49.324;8.694;2023-03-14T05:14:33;97797.50;;;9.29;98.93
38716;BME280;24833;49.324;8.694;2023-03-14T05:17:15;97796.94;;;9.27;99.34
38716;BME280;24833;49.324;8.694;2023-03-14T05:20:02;97808.38;;;9.27;99.15
38716;BME280;24833;49.324;8.694;2023-03-14T05:22:50;97800.16;;;9.29;98.81
38716;BME280;24833;49.324;8.694;2023-03-14T05:25:27;97818.81;;;9.29;98.94
38716;BME280;24833;49.324;8.694;2023-03-14T05:28:09;97815.94;;;9.31;99.21
38716;BME280;24833;49.324;8.694;2023-03-14T05:31:15;97818.59;;;9.31;99.45
38716;BME280;24833;49.324;8.694;2023-03-14T05:34:02;97824.72;;;9.31;99.26
38716;BME280;24833;49.324;8.694;2023-03-14T05:36:48;97815.69;;;9.32;99.58
38716;BME280;24833;49.324;8.694;2023-03-14T05:39:31;97825.03;;;9.35;99.46
38716;BME280;24833;49.324;8.694;2023-03-14T05:42:16;97807.00;;;9.37;99.53
38716;BME280;24833;49.324;8.694;2023-03-14T05:44:54;97814.19;;;9.36;99.62
38716;BME280;24833;49.324;8.694;2023-03-14T05:47:59;97820.88;;;9.39;99.29
38716;BME280;24833;49.324;8.694;2023-03-14T05:50:57;97808.38;;;9.39;98.42
38716;BME280;24833;49.324;8.694;2023-03-14T05:53:44;97800.38;;;9.39;99.00
38716;BME280;24833;49.324;8.694;2023-03-14T05:56:29;97795.63;;;9.41;99.06
38716;BME280;24833;49.324;8.694;2023-03-14T05:59:15;97788.22;;;9.43;98.97
38716;BME280;24833;49.324;8.694;2023-03-14T06:02:14;97797.81;;;9.44;99.42
38716;BME280;24833;49.324;8.694;2023-03-14T06:04:52;97795.72;;;9.46;99.31
38716;BME280;24833;49.324;8.694;2023-03-14T06:07:19;97782.16;;;9.48;98.69
38716;BME280;24833;49.324;8.694;2023-03-14T06:09:46;97781.09;;;9.49;98.92
38716;BME280;24833;49.324;8.694;2023-03-14T06:12:16;97787.81;;;9.51;98.55
38716;BME280;24833;49.324;8.694;2023-03-14T06:14:45;97785.72;;;9.53;99.15
38716;BME280;24833;49.324;8.694;2023-03-14T06:17:12;97786.78;;;9.52;98.98
38716;BME280;24833;49.324;8.694;2023-03-14T06:19:55;97798.81;;;9.55;98.96
38716;BME280;24833;49.324;8.694;2023-03-14T06:22:22;97786.88;;;9.58;98.78
38716;BME280;24833;49.324;8.694;2023-03-14T06:24:49;97789.28;;;9.59;98.38
38716;BME280;24833;49.324;8.694;2023-03-14T06:27:17;97794.38;;;9.61;98.55
38716;BME280;24833;49.324;8.694;2023-03-14T06:29:45;97788.81;;;9.62;98.83
38716;BME280;24833;49.324;8.694;2023-03-14T06:32:12;97790.44;;;9.63;98.88
38716;BME280;24833;49.324;8.694;2023-03-14T06:34:39;97784.06;;;9.64;98.52
38716;BME280;24833;49.324;8.694;2023-03-14T06:37:07;97787.03;;;9.68;98.59
38716;BME280;24833;49.324;8.694;2023-03-14T06:39:34;97776.38;;;9.68;99.12
38716;BME280;24833;49.324;8.694;2023-03-14T06:42:09;97787.38;;;9.71;98.66
38716;BME280;24833;49.324;8.694;2023-03-14T06:44:37;97787.94;;;9.73;98.83
38716;BME280;24833;49.324;8.694;2023-03-14T06:47:04;97788.75;;;9.74;98.33
38716;BME280;24833;49.324;8.694;2023-03-14T06:49:32;97783.19;;;9.75;98.93
38716;BME280;24833;49.324;8.694;2023-03-14T06:52:01;97781.09;;;9.77;98.99
38716;BME280;24833;49.324;8.694;2023-03-14T06:54:29;97785.38;;;9.78;98.82
38716;BME280;24833;49.324;8.694;2023-03-14T06:56:56;97771.56;;;9.81;98.54
38716;BME280;24833;49.324;8.694;2023-03-14T06:59:23;97786.84;;;9.86;98.41
38716;BME280;24833;49.324;8.694;2023-03-14T07:01:51;97785.78;;;9.87;97.93
38716;BME280;24833;49.324;8.694;2023-03-14T07:04:18;97785.78;;;9.87;97.93
38716;BME280;24833;49.324;8.694;2023-03-14T07:06:47;97784.53;;;9.90;98.52
38716;BME280;24833;49.324;8.694;2023-03-14T07:09:15;97785.31;;;9.90;98.99
38716;BME280;24833;49.324;8.694;2023-03-14T07:11:49;97769.88;;;9.92;98.48
38716;BME280;24833;49.324;8.694;2023-03-14T07:14:17;97790.97;;;9.94;98.69
38716;BME280;24833;49.324;8.694;2023-03-14T07:16:46;97785.38;;;9.95;97.97
38716;BME280;24833;49.324;8.694;2023-03-14T07:19:13;97790.72;;;9.95;98.48
38716;BME280;24833;49.324;8.694;2023-03-14T07:21:40;97789.66;;;9.96;98.86
38716;BME280;24833;49.324;8.694;2023-03-14T07:24:11;97785.19;;;9.97;98.86
38716;BME280;24833;49.324;8.694;2023-03-14T07:26:38;97795.59;;;9.98;98.57
38716;BME280;24833;49.324;8.694;2023-03-14T07:29:05;97792.94;;;9.98;98.54
38716;BME280;24833;49.324;8.694;2023-03-14T07:31:32;97792.94;;;9.98;98.27
38716;BME280;24833;49.324;8.694;2023-03-14T07:34:01;97785.97;;;9.97;97.96
38716;BME280;24833;49.324;8.694;2023-03-14T07:36:32;97788.66;;;9.97;97.66
38716;BME280;24833;49.324;8.694;2023-03-14T07:38:59;97795.59;;;9.98;98.21
38716;BME280;24833;49.324;8.694;2023-03-14T07:41:41;97794.28;;;10.01;97.92
38716;BME280;24833;49.324;8.694;2023-03-14T07:44:37;97786.03;;;10.02;97.78
38716;BME280;24833;49.324;8.694;2023-03-14T07:47:04;97796.50;;;10.04;98.12
38716;BME280;24833;49.324;8.694;2023-03-14T07:49:31;97784.53;;;10.06;98.22
38716;BME280;24833;49.324;8.694;2023-03-14T07:51:57;97787.75;;;10.08;98.44
38716;BME280;24833;49.324;8.694;2023-03-14T07:54:25;97785.66;;;10.10;97.79
38716;BME280;24833;49.324;8.694;2023-03-14T07:56:52;97792.13;;;10.15;98.12
38716;BME280;24833;49.324;8.694;2023-03-14T07:59:19;97796.97;;;10.18;98.11
38716;BME280;24833;49.324;8.694;2023-03-14T08:01:47;97805.06;;;10.23;98.31
38716;BME280;24833;49.324;8.694;2023-03-14T08:04:14;97802.41;;;10.23;98.17
38716;BME280;24833;49.324;8.694;2023-03-14T08:06:41;97789.91;;;10.23;97.85
38716;BME280;24833;49.324;8.694;2023-03-14T08:09:08;97799.28;;;10.26;97.84
38716;BME280;24833;49.324;8.694;2023-03-14T08:11:35;97802.50;;;10.28;96.95
38716;BME280;24833;49.324;8.694;2023-03-14T08:14:02;97798.78;;;10.29;97.33
38716;BME280;24833;49.324;8.694;2023-03-14T08:16:29;97808.41;;;10.30;97.99
38716;BME280;24833;49.324;8.694;2023-03-14T08:18:56;97807.91;;;10.33;97.96
38716;BME280;24833;49.324;8.694;2023-03-14T08:21:24;97803.16;;;10.35;97.93
38716;BME280;24833;49.324;8.694;2023-03-14T08:23:51;97797.34;;;10.38;98.27
38716;BME280;24833;49.324;8.694;2023-03-14T08:26:18;97806.44;;;10.42;98.01
38716;BME280;24833;49.324;8.694;2023-03-14T08:28:44;97803.31;;;10.45;97.28
38716;BME280;24833;49.324;8.694;2023-03-14T08:31:11;97806.53;;;10.47;97.71
38716;BME280;24833;49.324;8.694;2023-03-14T08:33:39;97797.47;;;10.48;96.27
38716;BME280;24833;49.324;8.694;2023-03-14T08:36:06;97803.16;;;10.52;97.38
38716;BME280;24833;49.324;8.694;2023-03-14T08:38:33;97805.56;;;10.53;97.42
38716;BME280;24833;49.324;8.694;2023-03-14T08:41:02;97808.78;;;10.55;97.17
38716;BME280;24833;49.324;8.694;2023-03-14T08:43:29;97816.88;;;10.60;97.24
38716;BME280;24833;49.324;8.694;2023-03-14T08:46:01;97826.84;;;10.65;97.39
38716;BME280;24833;49.324;8.694;2023-03-14T08:48:29;97814.59;;;10.69;97.60
38716;BME280;24833;49.324;8.694;2023-03-14T08:51:04;97818.91;;;10.70;96.57
38716;BME280;24833;49.324;8.694;2023-03-14T08:53:31;97831.50;;;10.75;97.51
38716;BME280;24833;49.324;8.694;2023-03-14T08:55:58;97843.78;;;10.76;97.58
38716;BME280;24833;49.324;8.694;2023-03-14T08:58:25;97839.03;;;10.78;97.09
38716;BME280;24833;49.324;8.694;2023-03-14T09:00:52;97854.56;;;10.81;97.30
38716;BME280;24833;49.324;8.694;2023-03-14T09:03:20;97862.31;;;10.82;96.66
38716;BME280;24833;49.324;8.694;2023-03-14T09:05:51;97854.88;;;10.84;96.34
38716;BME280;24833;49.324;8.694;2023-03-14T09:08:18;97847.44;;;10.86;96.99
38716;BME280;24833;49.324;8.694;2023-03-14T09:10:45;97848.78;;;10.89;97.49
38716;BME280;24833;49.324;8.694;2023-03-14T09:13:12;97857.94;;;10.93;97.71
38716;BME280;24833;49.324;8.694;2023-03-14T09:15:39;97863.59;;;10.97;98.22
38716;BME280;24833;49.324;8.694;2023-03-14T09:18:08;97865.22;;;10.98;97.94
38716;BME280;24833;49.324;8.694;2023-03-14T09:20:35;97868.19;;;11.01;97.31
38716;BME280;24833;49.324;8.694;2023-03-14T09:23:02;97864.97;;;10.99;97.41
38716;BME280;24833;49.324;8.694;2023-03-14T09:25:29;97861.50;;;10.99;97.29
38716;BME280;24833;49.324;8.694;2023-03-14T09:27:56;97869.75;;;10.97;97.67
38716;BME280;24833;49.324;8.694;2023-03-14T09:30:23;97861.75;;;10.97;96.99
38716;BME280;24833;49.324;8.694;2023-03-14T09:32:50;97861.97;;;10.96;97.45
38716;BME280;24833;49.324;8.694;2023-03-14T09:35:17;97857.94;;;10.93;96.80
38716;BME280;24833;49.324;8.694;2023-03-14T09:37:44;97852.03;;;10.91;97.01
38716;BME280;24833;49.324;8.694;2023-03-14T09:40:16;97856.31;;;10.92;96.86
38716;BME280;24833;49.324;8.694;2023-03-14T09:42:44;97870.47;;;10.93;97.65
38716;BME280;24833;49.324;8.694;2023-03-14T09:45:25;97856.31;;;10.92;96.95
38716;BME280;24833;49.324;8.694;2023-03-14T09:47:52;97843.53;;;10.94;96.78
38716;BME280;24833;49.324;8.694;2023-03-14T09:50:30;97850.72;;;10.94;96.83
38716;BME280;24833;49.324;8.694;2023-03-14T09:53:04;97851.88;;;10.98;97.14
38716;BME280;24833;49.324;8.694;2023-03-14T09:55:33;97840.13;;;10.99;97.52
38716;BME280;24833;49.324;8.694;2023-03-14T09:58:11;97847.63;;;11.02;96.60
38716;BME280;24833;49.324;8.694;2023-03-14T10:00:38;97845.28;;;11.05;97.41
38716;BME280;24833;49.324;8.694;2023-03-14T10:05:40;97857.16;;;11.14;96.25
38716;BME280;24833;49.324;8.694;2023-03-14T10:08:12;97849.16;;;11.14;97.05
38716;BME280;24833;49.324;8.694;2023-03-14T10:10:41;97862.03;;;11.17;96.29
38716;BME280;24833;49.324;8.694;2023-03-14T10:13:25;97857.72;;;11.16;96.17
38716;BME280;24833;49.324;8.694;2023-03-14T10:18:23;97843.63;;;11.21;96.33
38716;BME280;24833;49.324;8.694;2023-03-14T10:23:52;97892.44;;;11.16;95.65
38716;BME280;24833;49.324;8.694;2023-03-14T10:26:27;97868.34;;;11.11;95.95
38716;BME280;24833;49.324;8.694;2023-03-14T10:29:11;97873.69;;;11.11;95.11
38716;BME280;24833;49.324;8.694;2023-03-14T10:32:04;97863.00;;;11.11;94.50
38716;BME280;24833;49.324;8.694;2023-03-14T10:34:35;97874.75;;;11.10;96.25
38716;BME280;24833;49.324;8.694;2023-03-14T10:37:21;97865.34;;;11.08;95.57
38716;BME280;24833;49.324;8.694;2023-03-14T10:39:55;97863.47;;;11.08;96.17
38716;BME280;24833;49.324;8.694;2023-03-14T10:42:29;97877.34;;;11.05;96.41
38716;BME280;24833;49.324;8.694;2023-03-14T10:47:51;97859.38;;;11.01;95.41
38716;BME280;24833;49.324;8.694;2023-03-14T10:50:30;97871.03;;;10.95;95.30
38716;BME280;24833;49.324;8.694;2023-03-14T10:53:02;97885.16;;;10.90;95.49
38716;BME280;24833;49.324;8.694;2023-03-14T10:55:44;97863.69;;;10.85;95.43
38716;BME280;24833;49.324;8.694;2023-03-14T10:58:27;97864.41;;;10.80;95.36
38716;BME280;24833;49.324;8.694;2023-03-14T11:04:41;97868.63;;;10.76;95.06
38716;BME280;24833;49.324;8.694;2023-03-14T11:19:31;97878.97;;;10.56;96.28
38716;BME280;24833;49.324;8.694;2023-03-14T11:25:18;97881.16;;;10.42;96.36
38716;BME280;24833;49.324;8.694;2023-03-14T11:28:18;97882.13;;;10.36;96.22
38716;BME280;24833;49.324;8.694;2023-03-14T11:30:58;97882.88;;;10.31;97.01
38716;BME280;24833;49.324;8.694;2023-03-14T11:33:31;97896.91;;;10.27;95.75
38716;BME280;24833;49.324;8.694;2023-03-14T11:36:10;97889.16;;;10.25;97.02
38716;BME280;24833;49.324;8.694;2023-03-14T11:38:48;97901.09;;;10.23;96.93
38716;BME280;24833;49.324;8.694;2023-03-14T11:41:38;97924.50;;;10.21;96.92
38716;BME280;24833;49.324;8.694;2023-03-14T11:44:18;97920.72;;;10.17;97.29
38716;BME280;24833;49.324;8.694;2023-03-14T11:46:57;97919.31;;;10.14;97.87
38716;BME280;24833;49.324;8.694;2023-03-14T11:49:50;97926.75;;;10.12;97.03
38716;BME280;24833;49.324;8.694;2023-03-14T11:52:34;97927.81;;;10.11;96.67
38716;BME280;24833;49.324;8.694;2023-03-14T11:58:00;97980.47;;;10.04;97.10
38716;BME280;24833;49.324;8.694;2023-03-14T12:00:29;97980.38;;;9.99;98.01
38716;BME280;24833;49.324;8.694;2023-03-14T12:06:28;98025.47;;;9.89;95.56
38716;BME280;24833;49.324;8.694;2023-03-14T12:09:03;97999.19;;;9.80;96.25
38716;BME280;24833;49.324;8.694;2023-03-14T12:11:56;98027.59;;;9.75;94.99
38716;BME280;24833;49.324;8.694;2023-03-14T12:14:34;98042.44;;;9.71;95.36
38716;BME280;24833;49.324;8.694;2023-03-14T12:20:18;98066.41;;;9.59;94.20
38716;BME280;24833;49.324;8.694;2023-03-14T12:25:26;98073.94;;;9.50;95.84
38716;BME280;24833;49.324;8.694;2023-03-14T12:38:52;98123.94;;;9.25;94.44
38716;BME280;24833;49.324;8.694;2023-03-14T12:41:44;98123.81;;;9.20;94.93
38716;BME280;24833;49.324;8.694;2023-03-14T12:49:49;98175.03;;;9.04;94.96
38716;BME280;24833;49.324;8.694;2023-03-14T12:52:33;98149.75;;;8.94;94.38
38716;BME280;24833;49.324;8.694;2023-03-14T12:55:24;98170.19;;;8.82;94.51
38716;BME280;24833;49.324;8.694;2023-03-14T12:58:22;98206.34;;;8.71;92.51
38716;BME280;24833;49.324;8.694;2023-03-14T13:00:59;98205.84;;;8.63;93.35
38716;BME280;24833;49.324;8.694;2023-03-14T13:03:57;98214.56;;;8.52;92.13
38716;BME280;24833;49.324;8.694;2023-03-14T13:06:55;98240.41;;;8.44;92.76
38716;BME280;24833;49.324;8.694;2023-03-14T13:09:36;98234.72;;;8.41;92.90
38716;BME280;24833;49.324;8.694;2023-03-14T13:12:18;98248.00;;;8.41;92.88
38716;BME280;24833;49.324;8.694;2023-03-14T13:14:49;98263.31;;;8.45;93.39
38716;BME280;24833;49.324;8.694;2023-03-14T13:17:32;98260.38;;;8.54;93.54
38716;BME280;24833;49.324;8.694;2023-03-14T13:20:30;98279.91;;;8.66;92.79
38716;BME280;24833;49.324;8.694;2023-03-14T13:22:57;98287.59;;;8.74;94.29
38716;BME280;24833;49.324;8.694;2023-03-14T13:25:31;98287.91;;;8.84;93.96
38716;BME280;24833;49.324;8.694;2023-03-14T13:28:00;98298.81;;;8.94;95.08
38716;BME280;24833;49.324;8.694;2023-03-14T13:30:39;98299.56;;;9.01;94.30
38716;BME280;24833;49.324;8.694;2023-03-14T13:33:06;98292.31;;;9.09;94.28
38716;BME280;24833;49.324;8.694;2023-03-14T13:35:44;98300.31;;;9.09;93.13
38716;BME280;24833;49.324;8.694;2023-03-14T13:38:29;98306.25;;;9.11;92.66
38716;BME280;24833;49.324;8.694;2023-03-14T13:40:59;98331.81;;;9.12;93.31
38716;BME280;24833;49.324;8.694;2023-03-14T13:43:41;98342.09;;;9.08;91.53
38716;BME280;24833;49.324;8.694;2023-03-14T13:48:49;98366.59;;;8.98;88.99
38716;BME280;24833;49.324;8.694;2023-03-14T13:51:18;98361.56;;;8.90;89.04
38716;BME280;24833;49.324;8.694;2023-03-14T13:53:49;98375.13;;;8.82;89.12
38716;BME280;24833;49.324;8.694;2023-03-14T13:56:19;98386.44;;;8.78;90.23
38716;BME280;24833;49.324;8.694;2023-03-14T13:58:47;98392.41;;;8.73;90.18
38716;BME280;24833;49.324;8.694;2023-03-14T14:01:35;98379.56;;;8.70;90.18
38716;BME280;24833;49.324;8.694;2023-03-14T14:04:17;98400.22;;;8.68;88.65
38716;BME280;24833;49.324;8.694;2023-03-14T14:06:57;98405.13;;;8.71;89.46
38716;BME280;24833;49.324;8.694;2023-03-14T14:09:29;98404.25;;;8.77;90.13
38716;BME280;24833;49.324;8.694;2023-03-14T14:12:03;98409.94;;;8.81;89.38
38716;BME280;24833;49.324;8.694;2023-03-14T14:14:57;98423.66;;;8.84;88.00
38716;BME280;24833;49.324;8.694;2023-03-14T14:17:44;98423.88;;;8.83;88.86
38716;BME280;24833;49.324;8.694;2023-03-14T14:20:44;98460.28;;;8.82;88.47
38716;BME280;24833;49.324;8.694;2023-03-14T14:23:26;98459.94;;;8.79;88.21
38716;BME280;24833;49.324;8.694;2023-03-14T14:25:57;98449.88;;;8.81;88.77
38716;BME280;24833;49.324;8.694;2023-03-14T14:28:30;98458.47;;;8.83;89.06
38716;BME280;24833;49.324;8.694;2023-03-14T14:31:23;98472.59;;;8.83;88.38
38716;BME280;24833;49.324;8.694;2023-03-14T14:34:02;98482.56;;;8.88;88.48
38716;BME280;24833;49.324;8.694;2023-03-14T14:36:41;98488.47;;;8.96;89.31
38716;BME280;24833;49.324;8.694;2023-03-14T14:39:28;98499.88;;;9.04;88.27
38716;BME280;24833;49.324;8.694;2023-03-14T14:41:57;98503.66;;;9.14;88.38
38716;BME280;24833;49.324;8.694;2023-03-14T14:44:33;98496.81;;;9.25;88.94